Terminal Aerodrome Forecast
Issued by NWS Charleston, WV

Current Version | Previous Version | Graphics & Text | Print | Product List | Glossary On
Versions: 1 2 3 4 5 6 7 8 9 10 11 12 13 14 15 16 17 18 19 20 21 22 23
966
FTUS41 KRLX 260928 AAA
TAFEKN
TAF AMD
KEKN 260928Z 2609/2706 15004KT P6SM BKN150
     FM261700 17011G19KT P6SM BKN050
     FM262000 17011G18KT P6SM -SHRA BKN030
     FM270000 16008KT P6SM -SHRA BKN030=

USA.gov is the U.S. government's official web portal to all federal, state and local government web resources and services.